createdAt,value
2023-01-30T00:01:25.776Z,66.10
2023-01-30T00:03:52.597Z,66.03
2023-01-30T00:06:20.048Z,65.79
2023-01-30T00:08:46.822Z,65.19
2023-01-30T00:11:15.174Z,65.14
2023-01-30T00:13:42.471Z,65.15
2023-01-30T00:16:09.893Z,65.10
2023-01-30T00:18:40.847Z,65.35
2023-01-30T00:21:09.484Z,65.90
2023-01-30T00:23:36.786Z,66.25
2023-01-30T00:26:04.879Z,65.41
2023-01-30T00:28:34.752Z,65.36
2023-01-30T00:31:01.673Z,66.17
2023-01-30T00:33:31.469Z,65.50
2023-01-30T00:35:58.323Z,65.85
2023-01-30T00:38:25.156Z,65.73
2023-01-30T00:40:51.815Z,65.34
2023-01-30T00:43:38.969Z,64.68
2023-01-30T00:46:30.706Z,65.19
2023-01-30T00:48:57.408Z,65.15
2023-01-30T00:51:24.169Z,65.30
2023-01-30T00:53:50.927Z,65.01
2023-01-30T00:56:17.638Z,65.84
2023-01-30T00:58:44.409Z,65.17
2023-01-30T01:01:11.463Z,65.36
2023-01-30T01:03:38.220Z,65.43
2023-01-30T01:06:05.323Z,65.36
2023-01-30T01:08:32.277Z,65.99
2023-01-30T01:10:58.966Z,65.71
2023-01-30T01:13:25.653Z,65.43
2023-01-30T01:15:52.322Z,66.92
2023-01-30T01:18:19.193Z,65.67
2023-01-30T01:20:46.997Z,65.69
2023-01-30T01:23:16.956Z,65.94
2023-01-30T01:25:43.718Z,66.39
2023-01-30T01:28:10.373Z,66.35
2023-01-30T01:30:38.142Z,66.16
2023-01-30T01:33:04.839Z,66.45
2023-01-30T01:35:31.552Z,65.80
2023-01-30T01:37:58.198Z,66.00
2023-01-30T01:40:43.631Z,66.07
2023-01-30T01:43:21.763Z,66.60
2023-01-30T01:46:10.478Z,66.58
2023-01-30T01:48:49.717Z,66.26
2023-01-30T01:51:21.185Z,67.01
2023-01-30T01:53:56.500Z,66.65
2023-01-30T01:56:23.334Z,66.59
2023-01-30T01:59:02.120Z,66.07
2023-01-30T02:01:29.032Z,66.15
2023-01-30T02:03:59.285Z,66.30
2023-01-30T02:06:25.976Z,67.08
2023-01-30T02:08:56.304Z,68.49
2023-01-30T02:11:41.903Z,68.51
2023-01-30T02:14:08.885Z,70.10
2023-01-30T02:16:37.331Z,68.93
2023-01-30T02:19:07.788Z,70.04
2023-01-30T02:22:07.710Z,69.87
2023-01-30T02:25:08.468Z,70.77
2023-01-30T02:27:44.321Z,69.70
2023-01-30T02:30:48.930Z,69.36
2023-01-30T02:33:28.393Z,70.54
2023-01-30T02:36:26.029Z,69.51
2023-01-30T02:39:08.748Z,70.01
2023-01-30T02:41:47.109Z,70.43
2023-01-30T02:44:38.794Z,71.51
2023-01-30T02:47:10.485Z,71.44
2023-01-30T02:49:49.590Z,71.51
2023-01-30T02:52:18.337Z,72.11
2023-01-30T02:54:45.870Z,72.29
2023-01-30T02:57:22.843Z,72.51
2023-01-30T02:59:55.996Z,72.86
2023-01-30T03:02:40.430Z,73.53
2023-01-30T03:05:48.535Z,72.58
2023-01-30T03:08:36.994Z,73.23
2023-01-30T03:11:06.668Z,73.68
2023-01-30T03:13:42.029Z,73.83
2023-01-30T03:16:12.903Z,73.21
2023-01-30T03:18:43.779Z,72.90
2023-01-30T03:21:11.571Z,73.55
2023-01-30T03:23:38.411Z,74.00
2023-01-30T03:26:06.666Z,72.97
2023-01-30T03:28:34.651Z,72.87
2023-01-30T03:31:01.598Z,72.82
2023-01-30T03:33:28.810Z,73.61
2023-01-30T03:36:01.856Z,72.91
2023-01-30T03:38:28.562Z,72.82
2023-01-30T03:40:55.245Z,72.83
2023-01-30T03:43:22.093Z,73.05
2023-01-30T03:45:48.832Z,72.78
2023-01-30T03:48:15.799Z,72.97
2023-01-30T03:50:45.482Z,73.01
2023-01-30T03:53:12.299Z,72.91
2023-01-30T03:55:39.440Z,73.86
2023-01-30T03:58:06.360Z,73.67
2023-01-30T04:00:33.901Z,72.52
2023-01-30T04:03:01.462Z,72.76
2023-01-30T04:05:28.296Z,71.87
2023-01-30T04:08:02.015Z,72.67
2023-01-30T04:10:28.825Z,73.03
2023-01-30T04:12:55.521Z,72.63
2023-01-30T04:15:22.921Z,72.81
2023-01-30T04:18:09.975Z,72.58
2023-01-30T04:20:49.448Z,71.99
2023-01-30T04:23:20.851Z,72.14
2023-01-30T04:25:48.749Z,71.58
2023-01-30T04:28:18.166Z,71.00
2023-01-30T04:30:45.435Z,71.78
2023-01-30T04:33:31.509Z,72.25
2023-01-30T04:36:00.168Z,72.27
2023-01-30T04:38:28.714Z,72.09
2023-01-30T04:40:56.655Z,71.33
2023-01-30T04:43:26.808Z,71.45
2023-01-30T04:46:12.022Z,71.64
2023-01-30T04:48:39.803Z,72.16
2023-01-30T04:51:06.540Z,72.21
2023-01-30T04:53:33.988Z,71.90
2023-01-30T04:56:01.364Z,71.86
2023-01-30T04:58:28.062Z,72.24
2023-01-30T05:00:55.026Z,73.71
2023-01-30T05:03:21.790Z,73.32
2023-01-30T05:05:48.776Z,73.31
2023-01-30T05:08:16.197Z,74.21
2023-01-30T05:10:42.864Z,75.60
2023-01-30T05:13:09.589Z,75.29
2023-01-30T05:15:36.231Z,75.98
2023-01-30T05:18:02.913Z,76.45
2023-01-30T05:20:32.637Z,76.92
2023-01-30T05:22:59.351Z,77.82
2023-01-30T05:25:26.050Z,79.49
2023-01-30T05:27:52.802Z,79.59
2023-01-30T05:30:19.573Z,79.49
2023-01-30T05:32:46.297Z,80.17
2023-01-30T05:35:12.983Z,81.48
2023-01-30T05:37:39.881Z,81.10
2023-01-30T05:40:13.112Z,80.09
2023-01-30T05:42:39.855Z,80.18
2023-01-30T05:45:07.118Z,80.45
2023-01-30T05:47:33.847Z,80.47
2023-01-30T05:50:00.520Z,80.77
2023-01-30T05:52:27.230Z,80.65
2023-01-30T05:54:53.953Z,80.57
2023-01-30T05:57:20.648Z,81.86
2023-01-30T05:59:47.316Z,82.98
2023-01-30T06:02:14.074Z,82.31
2023-01-30T06:04:40.735Z,82.25
2023-01-30T06:07:07.393Z,82.09
2023-01-30T06:09:34.090Z,82.41
2023-01-30T06:12:00.690Z,82.82
2023-01-30T06:14:27.382Z,83.23
2023-01-30T06:16:54.177Z,82.86
2023-01-30T06:19:20.839Z,83.00
2023-01-30T06:21:47.536Z,82.73
2023-01-30T06:24:17.222Z,83.52
2023-01-30T06:26:43.955Z,82.80
2023-01-30T06:29:10.847Z,82.61
2023-01-30T06:31:37.552Z,82.24
2023-01-30T06:34:04.277Z,82.73
2023-01-30T06:36:31.069Z,82.37
2023-01-30T06:38:57.689Z,83.00
2023-01-30T06:41:24.415Z,83.27
2023-01-30T06:43:51.149Z,83.93
2023-01-30T06:46:17.821Z,83.75
2023-01-30T06:48:44.461Z,83.56
2023-01-30T06:51:11.195Z,83.44
2023-01-30T06:53:40.897Z,83.21
2023-01-30T06:56:07.639Z,83.49
2023-01-30T06:58:34.281Z,84.24
2023-01-30T07:01:02.158Z,84.49
2023-01-30T07:03:28.813Z,84.49
2023-01-30T07:05:55.593Z,83.97
2023-01-30T07:08:24.198Z,84.13
2023-01-30T07:10:51.120Z,83.98
2023-01-30T07:13:17.940Z,83.76
2023-01-30T07:15:45.012Z,83.91
2023-01-30T07:18:11.685Z,83.23
2023-01-30T07:20:42.416Z,83.46
2023-01-30T07:23:09.132Z,83.97
2023-01-30T07:25:35.874Z,84.38
2023-01-30T07:28:03.015Z,84.20
2023-01-30T07:30:32.015Z,84.14
2023-01-30T07:33:00.162Z,84.59
2023-01-30T07:35:28.946Z,85.29
2023-01-30T07:37:55.729Z,85.16
2023-01-30T07:40:22.976Z,85.08
2023-01-30T07:43:06.691Z,84.88
2023-01-30T07:46:04.084Z,84.78
2023-01-30T07:48:30.781Z,84.53
2023-01-30T07:50:57.816Z,85.57
2023-01-30T07:53:24.503Z,85.87
2023-01-30T07:55:51.162Z,86.41
2023-01-30T07:58:17.960Z,85.49
2023-01-30T08:00:47.716Z,85.14
2023-01-30T08:03:15.904Z,85.50
2023-01-30T08:05:42.969Z,86.01
2023-01-30T08:08:09.913Z,85.55
2023-01-30T08:10:36.926Z,86.03
2023-01-30T08:13:04.749Z,86.56
2023-01-30T08:15:33.603Z,85.70
2023-01-30T08:18:00.481Z,85.44
2023-01-30T08:20:30.240Z,84.96
2023-01-30T08:22:58.869Z,86.19
2023-01-30T08:25:25.657Z,85.90
2023-01-30T08:27:52.805Z,86.27
2023-01-30T08:30:20.613Z,85.45
2023-01-30T08:32:47.569Z,84.84
2023-01-30T08:35:14.654Z,85.36
2023-01-30T08:37:42.001Z,84.85
2023-01-30T08:40:09.387Z,84.06
2023-01-30T08:42:36.221Z,84.97
2023-01-30T08:45:03.246Z,84.93
2023-01-30T08:47:31.030Z,85.35
2023-01-30T08:49:57.927Z,85.87
2023-01-30T08:52:24.701Z,85.61
2023-01-30T08:54:54.384Z,84.48
2023-01-30T08:57:21.099Z,84.36
2023-01-30T08:59:47.864Z,84.36
2023-01-30T09:02:14.600Z,83.87
2023-01-30T09:04:41.506Z,82.81
2023-01-30T09:07:08.537Z,83.32
2023-01-30T09:09:41.611Z,82.90
2023-01-30T09:12:08.378Z,82.13
2023-01-30T09:14:35.042Z,82.60
2023-01-30T09:17:01.806Z,82.77
2023-01-30T09:19:28.950Z,83.35
2023-01-30T09:21:55.925Z,84.15
2023-01-30T09:24:26.894Z,83.71
2023-01-30T09:26:54.448Z,82.35
2023-01-30T09:29:21.287Z,81.98
2023-01-30T09:31:51.014Z,82.56
2023-01-30T09:34:17.790Z,81.51
2023-01-30T09:36:44.618Z,82.61
2023-01-30T09:39:11.296Z,81.87
2023-01-30T09:42:07.381Z,81.84
2023-01-30T09:44:52.854Z,82.52
2023-01-30T09:47:38.785Z,81.83
2023-01-30T09:50:29.948Z,79.97
2023-01-30T09:53:05.588Z,79.54
2023-01-30T09:55:34.267Z,79.54
2023-01-30T09:58:01.176Z,77.56
2023-01-30T10:00:39.590Z,76.23
2023-01-30T10:03:18.753Z,73.79
2023-01-30T10:05:52.881Z,74.21
2023-01-30T10:08:45.851Z,73.75
2023-01-30T10:11:12.467Z,74.92
2023-01-30T10:13:45.152Z,74.60
2023-01-30T10:16:31.006Z,74.92
2023-01-30T10:19:03.358Z,73.60
2023-01-30T10:21:52.906Z,70.07
2023-01-30T10:24:35.791Z,68.74
2023-01-30T10:27:04.742Z,67.09
2023-01-30T10:29:34.218Z,65.99
2023-01-30T10:32:10.657Z,62.75
2023-01-30T10:34:39.338Z,61.77
2023-01-30T10:37:21.208Z,62.67
2023-01-30T10:40:03.277Z,62.99
2023-01-30T10:42:37.562Z,63.45
2023-01-30T10:45:21.318Z,63.83
2023-01-30T10:48:15.912Z,64.84
2023-01-30T10:50:50.769Z,64.80
2023-01-30T10:53:23.872Z,65.05
2023-01-30T10:56:19.795Z,66.78
2023-01-30T10:58:55.211Z,67.69
2023-01-30T11:01:29.255Z,67.98
2023-01-30T11:04:02.695Z,66.76
2023-01-30T11:06:29.518Z,66.08
2023-01-30T11:08:56.576Z,67.39
2023-01-30T11:11:30.496Z,68.25
2023-01-30T11:14:07.257Z,69.45
2023-01-30T11:16:43.522Z,68.09
2023-01-30T11:19:20.739Z,68.14
2023-01-30T11:21:57.010Z,68.46
2023-01-30T11:24:30.264Z,67.78
2023-01-30T11:27:17.287Z,67.65
2023-01-30T11:29:44.091Z,67.83
2023-01-30T11:32:26.245Z,66.91
2023-01-30T11:35:16.128Z,66.64
2023-01-30T11:37:44.442Z,66.28
2023-01-30T11:40:17.298Z,66.66
2023-01-30T11:42:46.908Z,65.80
2023-01-30T11:45:17.712Z,66.29
2023-01-30T11:47:57.953Z,66.21
2023-01-30T11:50:34.906Z,64.97
2023-01-30T11:53:05.310Z,63.50
2023-01-30T11:55:34.171Z,63.70
2023-01-30T11:58:08.915Z,61.36
2023-01-30T12:00:42.011Z,60.93
2023-01-30T12:03:14.783Z,60.54
2023-01-30T12:05:42.868Z,59.93
2023-01-30T12:08:31.100Z,59.70
2023-01-30T12:11:03.357Z,62.16
2023-01-30T12:13:38.587Z,63.57
2023-01-30T12:16:29.887Z,64.89
2023-01-30T12:19:06.337Z,62.76
2023-01-30T12:21:54.519Z,63.74
2023-01-30T12:24:27.029Z,64.58
2023-01-30T12:26:58.639Z,61.36
2023-01-30T12:29:31.862Z,63.33
2023-01-30T12:32:11.588Z,63.47
2023-01-30T12:34:38.513Z,65.21
2023-01-30T12:37:31.094Z,66.64
2023-01-30T12:40:31.680Z,67.10
2023-01-30T12:43:19.284Z,64.22
2023-01-30T12:46:23.697Z,64.95
2023-01-30T12:49:11.559Z,64.38
2023-01-30T12:51:54.675Z,64.20
2023-01-30T12:54:44.096Z,62.96
2023-01-30T12:57:13.956Z,63.08
2023-01-30T12:59:59.806Z,61.38
2023-01-30T13:02:41.085Z,60.87
2023-01-30T13:05:17.069Z,61.12
2023-01-30T13:08:33.634Z,61.21
2023-01-30T13:11:38.066Z,62.86
2023-01-30T13:14:10.734Z,62.63
2023-01-30T13:16:57.938Z,61.78
2023-01-30T13:19:31.234Z,62.14
2023-01-30T13:22:16.478Z,61.33
2023-01-30T13:25:02.195Z,61.95
2023-01-30T13:27:29.702Z,62.13
2023-01-30T13:29:58.414Z,63.48
2023-01-30T13:32:25.000Z,63.08
2023-01-30T13:34:56.409Z,61.75
2023-01-30T13:37:23.188Z,63.35
2023-01-30T13:39:53.155Z,64.06
2023-01-30T13:42:28.665Z,66.02
2023-01-30T13:44:57.228Z,68.65
2023-01-30T13:47:54.649Z,70.51
2023-01-30T13:50:51.045Z,71.42
2023-01-30T13:53:28.439Z,74.15
2023-01-30T13:55:57.523Z,73.14
2023-01-30T13:58:55.272Z,73.38
2023-01-30T14:01:23.228Z,74.40
2023-01-30T14:03:52.928Z,74.16
2023-01-30T14:06:37.814Z,77.62
2023-01-30T14:09:20.729Z,78.66
2023-01-30T14:11:49.751Z,80.69
2023-01-30T14:14:19.554Z,82.67
2023-01-30T14:16:49.040Z,82.25
2023-01-30T14:19:24.469Z,82.08
2023-01-30T14:21:56.633Z,81.34
2023-01-30T14:24:25.176Z,82.14
2023-01-30T14:26:54.539Z,84.19
2023-01-30T14:29:41.077Z,83.99
2023-01-30T14:32:19.210Z,84.26
2023-01-30T14:35:01.334Z,82.97
2023-01-30T14:37:41.631Z,83.27
2023-01-30T14:40:23.706Z,83.24
2023-01-30T14:43:12.406Z,82.69
2023-01-30T14:45:55.125Z,83.70
2023-01-30T14:48:54.373Z,83.15
2023-01-30T14:51:43.543Z,83.69
2023-01-30T14:54:25.389Z,83.25
2023-01-30T14:56:59.899Z,84.79
2023-01-30T14:59:34.502Z,84.20
2023-01-30T15:02:21.798Z,84.41
2023-01-30T15:05:08.515Z,84.77
2023-01-30T15:07:47.577Z,85.23
2023-01-30T15:10:33.900Z,85.18
2023-01-30T15:13:40.235Z,85.20
2023-01-30T15:16:16.354Z,84.84
2023-01-30T15:19:03.786Z,84.78
2023-01-30T15:21:46.041Z,85.53
2023-01-30T15:24:46.624Z,84.92
2023-01-30T15:27:15.479Z,84.14
2023-01-30T15:30:06.754Z,84.18
2023-01-30T15:32:33.566Z,83.25
2023-01-30T15:35:19.038Z,83.76
2023-01-30T15:37:54.864Z,83.62
2023-01-30T15:40:27.235Z,83.88
2023-01-30T15:43:13.814Z,83.71
2023-01-30T15:45:46.787Z,83.98
2023-01-30T15:48:27.039Z,84.79
2023-01-30T15:50:55.562Z,84.56
2023-01-30T15:53:37.085Z,84.16
2023-01-30T15:56:07.919Z,85.26
2023-01-30T15:58:38.412Z,84.67
2023-01-30T16:01:05.559Z,83.33
2023-01-30T16:03:36.786Z,82.22
2023-01-30T16:06:04.233Z,82.96
2023-01-30T16:08:33.696Z,82.99
2023-01-30T16:11:00.962Z,82.92
2023-01-30T16:13:28.962Z,82.26
2023-01-30T16:16:01.858Z,83.28
2023-01-30T16:18:36.421Z,83.97
2023-01-30T16:21:23.462Z,83.62
2023-01-30T16:24:01.011Z,84.02
2023-01-30T16:26:27.917Z,84.15
2023-01-30T16:29:01.228Z,84.60
2023-01-30T16:31:35.030Z,85.27
2023-01-30T16:34:01.966Z,85.47
2023-01-30T16:36:33.012Z,85.61
2023-01-30T16:39:00.275Z,84.98
2023-01-30T16:41:41.185Z,84.54
2023-01-30T16:44:20.962Z,84.69
2023-01-30T16:47:05.051Z,84.96
2023-01-30T16:49:41.001Z,83.22
2023-01-30T16:52:23.761Z,85.12
2023-01-30T16:54:53.328Z,85.42
2023-01-30T16:57:43.996Z,85.14
2023-01-30T17:00:29.787Z,85.00
2023-01-30T17:03:08.521Z,85.83
2023-01-30T17:05:40.031Z,86.58
2023-01-30T17:08:46.598Z,87.32
2023-01-30T17:11:37.776Z,87.57
2023-01-30T17:14:10.524Z,86.94
2023-01-30T17:16:37.471Z,86.85
2023-01-30T17:19:04.425Z,86.49
2023-01-30T17:21:45.329Z,86.04
2023-01-30T17:24:15.612Z,85.77
2023-01-30T17:26:42.615Z,85.87
2023-01-30T17:29:23.811Z,85.85
2023-01-30T17:31:56.811Z,86.65
2023-01-30T17:34:24.048Z,87.35
2023-01-30T17:36:52.167Z,86.51
2023-01-30T17:39:21.413Z,85.05
2023-01-30T17:41:51.603Z,86.45
2023-01-30T17:44:18.634Z,87.29
2023-01-30T17:46:47.661Z,86.69
2023-01-30T17:49:19.857Z,87.25
2023-01-30T17:51:47.157Z,86.46
2023-01-30T17:54:18.491Z,86.64
2023-01-30T17:56:47.610Z,85.29
2023-01-30T17:59:16.587Z,85.88
2023-01-30T18:01:44.743Z,86.63
2023-01-30T18:04:11.595Z,87.35
2023-01-30T18:06:40.662Z,85.69
2023-01-30T18:09:07.736Z,85.88
2023-01-30T18:11:34.433Z,85.93
2023-01-30T18:14:01.202Z,86.55
2023-01-30T18:16:32.952Z,85.50
2023-01-30T18:19:08.757Z,84.27
2023-01-30T18:21:38.305Z,85.12
2023-01-30T18:24:05.246Z,84.69
2023-01-30T18:26:32.458Z,84.73
2023-01-30T18:28:59.561Z,84.11
2023-01-30T18:31:29.561Z,83.95
2023-01-30T18:33:56.550Z,83.49
2023-01-30T18:36:23.834Z,83.27
2023-01-30T18:38:50.958Z,82.41
2023-01-30T18:41:19.699Z,82.88
2023-01-30T18:43:50.409Z,82.62
2023-01-30T18:46:18.176Z,83.45
2023-01-30T18:48:45.866Z,81.88
2023-01-30T18:51:15.005Z,81.74
2023-01-30T18:53:42.892Z,81.81
2023-01-30T18:56:11.438Z,80.09
2023-01-30T18:58:38.612Z,79.59
2023-01-30T19:01:14.227Z,80.46
2023-01-30T19:03:41.773Z,79.79
2023-01-30T19:06:11.705Z,80.25
2023-01-30T19:08:38.869Z,79.09
2023-01-30T19:11:28.019Z,78.96
2023-01-30T19:13:55.948Z,78.32
2023-01-30T19:16:24.531Z,78.38
2023-01-30T19:18:51.519Z,77.30
2023-01-30T19:21:18.351Z,77.71
2023-01-30T19:23:45.334Z,78.27
2023-01-30T19:26:12.666Z,78.15
2023-01-30T19:28:41.829Z,77.54
2023-01-30T19:31:09.696Z,77.13
2023-01-30T19:33:36.725Z,77.22
2023-01-30T19:36:17.914Z,76.10
2023-01-30T19:38:45.795Z,75.84
2023-01-30T19:41:18.241Z,75.82
2023-01-30T19:43:44.929Z,77.71
2023-01-30T19:46:12.332Z,77.35
2023-01-30T19:48:39.915Z,77.74
2023-01-30T19:51:26.690Z,76.16
2023-01-30T19:53:55.280Z,78.00
2023-01-30T19:56:24.977Z,78.46
2023-01-30T19:58:52.879Z,78.29
2023-01-30T20:01:21.393Z,78.54
2023-01-30T20:03:48.455Z,78.35
2023-01-30T20:06:26.807Z,76.25
2023-01-30T20:09:01.960Z,76.08
2023-01-30T20:11:30.183Z,76.81
2023-01-30T20:13:57.184Z,76.54
2023-01-30T20:16:25.716Z,75.19
2023-01-30T20:18:59.891Z,76.24
2023-01-30T20:21:27.486Z,76.20
2023-01-30T20:23:54.338Z,75.13
2023-01-30T20:26:23.687Z,76.05
2023-01-30T20:28:50.805Z,75.39
2023-01-30T20:31:20.386Z,76.56
2023-01-30T20:33:47.604Z,76.30
2023-01-30T20:36:16.641Z,76.26
2023-01-30T20:38:43.787Z,75.59
2023-01-30T20:41:19.333Z,75.13
2023-01-30T20:43:52.303Z,74.44
2023-01-30T20:46:22.478Z,75.06
2023-01-30T20:48:50.128Z,75.53
2023-01-30T20:51:39.608Z,75.33
2023-01-30T20:54:08.344Z,73.98
2023-01-30T20:56:37.471Z,74.10
2023-01-30T20:59:05.548Z,74.37
2023-01-30T21:01:32.847Z,74.94
2023-01-30T21:04:00.039Z,73.44
2023-01-30T21:06:37.395Z,72.42
2023-01-30T21:09:11.490Z,73.66
2023-01-30T21:11:38.362Z,73.81
2023-01-30T21:14:05.040Z,72.71
2023-01-30T21:16:33.978Z,73.19
2023-01-30T21:19:04.088Z,73.57
2023-01-30T21:21:34.294Z,73.57
2023-01-30T21:24:04.530Z,72.56
2023-01-30T21:26:33.478Z,71.89
2023-01-30T21:29:00.767Z,72.04
2023-01-30T21:31:29.592Z,72.43
2023-01-30T21:33:57.737Z,73.58
2023-01-30T21:36:25.102Z,73.09
2023-01-30T21:39:11.517Z,72.78
2023-01-30T21:41:52.212Z,73.74
2023-01-30T21:44:20.148Z,73.32
2023-01-30T21:46:48.547Z,71.72
2023-01-30T21:49:16.616Z,73.28
2023-01-30T21:51:45.032Z,71.59
2023-01-30T21:54:12.226Z,71.20
2023-01-30T21:56:40.136Z,71.62
2023-01-30T21:59:07.118Z,72.01
2023-01-30T22:01:35.750Z,72.05
2023-01-30T22:04:04.660Z,72.24
2023-01-30T22:06:31.695Z,71.89
2023-01-30T22:09:00.203Z,70.78
2023-01-30T22:11:27.670Z,71.99
2023-01-30T22:13:54.841Z,74.14
2023-01-30T22:16:24.454Z,74.10
2023-01-30T22:18:53.183Z,73.27
2023-01-30T22:21:21.039Z,71.91
2023-01-30T22:23:49.416Z,71.72
2023-01-30T22:26:17.835Z,72.57
2023-01-30T22:28:44.860Z,71.47
2023-01-30T22:31:11.744Z,71.51
2023-01-30T22:33:39.409Z,71.50
2023-01-30T22:36:07.676Z,72.50
2023-01-30T22:38:34.647Z,73.25
2023-01-30T22:41:03.273Z,72.86
2023-01-30T22:43:31.205Z,73.34
2023-01-30T22:46:00.728Z,73.79
2023-01-30T22:48:28.983Z,72.29
2023-01-30T22:51:03.750Z,72.67
2023-01-30T22:53:34.844Z,73.84
2023-01-30T22:56:03.255Z,72.10
2023-01-30T22:58:29.924Z,71.98
2023-01-30T23:01:04.136Z,72.68
2023-01-30T23:03:30.946Z,72.39
2023-01-30T23:05:59.010Z,71.51
2023-01-30T23:08:26.621Z,71.27
2023-01-30T23:10:53.334Z,71.79
2023-01-30T23:13:20.175Z,72.55
2023-01-30T23:15:47.044Z,71.57
2023-01-30T23:18:32.771Z,70.56
2023-01-30T23:20:59.982Z,71.14
2023-01-30T23:23:26.805Z,71.42
2023-01-30T23:25:53.413Z,70.63
2023-01-30T23:28:20.075Z,71.05
2023-01-30T23:30:46.782Z,70.31
2023-01-30T23:33:13.789Z,70.34
2023-01-30T23:35:40.493Z,70.90
2023-01-30T23:38:16.144Z,71.35
2023-01-30T23:40:44.259Z,71.39
2023-01-30T23:43:10.948Z,70.78
2023-01-30T23:45:38.874Z,70.35
2023-01-30T23:48:06.367Z,70.16
2023-01-30T23:50:37.677Z,71.26
2023-01-30T23:53:05.353Z,70.83
2023-01-30T23:55:32.629Z,71.19
2023-01-30T23:58:00.136Z,70.29
